Time;durP1;ratioP1;P1;durP2;ratioP2;P2;SDS_P1;SDS_P2;PMS_P1;PMS_P2;Temp;Humidity;BMP_temperature;BMP_pressure;BME280_temperature;BME280_humidity;BME280_pressure;Samples;Min_cycle;Max_cycle;Signal;HPM_P1;HPM_P2
2023/04/10 00:00:57;;;;;;;30.17;22.27;;;;;;;5.62;100.00;102477.88;10171056;28;20575;-68
2023/04/10 00:05:54;;;;;;;30.80;21.58;;;;;;;5.72;100.00;102479.16;10173340;28;20563;-68
2023/04/10 00:10:53;;;;;;;33.88;21.80;;;;;;;5.63;100.00;102465.13;10174311;28;20135;-67
2023/04/10 00:15:49;;;;;;;31.88;21.33;;;;;;;5.56;100.00;102453.59;10170685;28;20060;-68
2023/04/10 00:20:46;;;;;;;28.92;19.48;;;;;;;5.58;100.00;102446.06;10165432;28;20097;-67
2023/04/10 00:25:42;;;;;;;32.90;22.77;;;;;;;5.50;100.00;102436.41;10174549;28;20053;-67
2023/04/10 00:30:39;;;;;;;31.10;21.50;;;;;;;5.43;100.00;102433.84;10173852;28;20090;-68
2023/04/10 00:35:35;;;;;;;33.95;21.63;;;;;;;5.42;100.00;102432.19;10176906;28;20540;-69
2023/04/10 00:40:32;;;;;;;35.13;22.23;;;;;;;5.45;100.00;102433.56;10167627;28;20054;-68
2023/04/10 00:45:29;;;;;;;30.77;22.63;;;;;;;5.37;100.00;102433.97;10172000;28;20100;-68
2023/04/10 00:50:25;;;;;;;28.90;20.92;;;;;;;5.38;100.00;102435.59;10168906;28;20141;-67
2023/04/10 00:55:22;;;;;;;32.75;22.02;;;;;;;5.27;100.00;102430.00;10174389;28;20176;-67
2023/04/10 01:00:19;;;;;;;33.92;23.08;;;;;;;5.31;100.00;102424.06;10165034;28;20453;-68
2023/04/10 01:10:33;;;;;;;35.20;21.33;;;;;;;5.23;100.00;102428.81;10037632;28;20453;-73
2023/04/10 01:15:41;;;;;;;28.85;19.42;;;;;;;5.25;100.00;102421.25;10101875;28;20135;-71
2023/04/10 01:20:40;;;;;;;30.90;20.50;;;;;;;5.21;100.00;102425.50;10143275;28;20051;-72
2023/04/10 01:25:45;;;;;;;30.40;19.98;;;;;;;5.22;100.00;102415.47;10138038;28;20054;-73
2023/04/10 01:30:43;;;;;;;34.88;21.30;;;;;;;5.20;100.00;102423.88;10146843;28;20514;-73
2023/04/10 01:35:42;;;;;;;36.25;22.77;;;;;;;5.20;100.00;102418.47;10137592;28;20070;-73
2023/04/10 01:40:41;;;;;;;30.77;20.38;;;;;;;5.22;100.00;102416.34;10141036;28;20042;-70
2023/04/10 01:45:40;;;;;;;31.90;20.55;;;;;;;5.27;100.00;102407.47;10145128;28;20465;-74
2023/04/10 01:50:38;;;;;;;32.20;20.27;;;;;;;5.40;100.00;102406.34;10148272;28;20065;-73
2023/04/10 01:55:36;;;;;;;35.95;20.17;;;;;;;5.35;100.00;102398.13;10146308;28;20504;-73
2023/04/10 02:00:40;;;;;;;32.55;21.20;;;;;;;5.36;100.00;102394.34;10145531;28;20066;-74
2023/04/10 02:05:41;;;;;;;29.73;20.63;;;;;;;5.31;100.00;102391.53;10143935;28;20093;-73
2023/04/10 02:10:53;;;;;;;32.80;22.05;;;;;;;5.34;100.00;102380.19;10141050;28;20500;-73
2023/04/10 02:15:51;;;;;;;29.65;19.73;;;;;;;5.40;100.00;102374.63;10135167;28;20046;-73
2023/04/10 02:20:48;;;;;;;33.60;22.33;;;;;;;5.31;100.00;102369.81;10145706;28;20050;-73
2023/04/10 02:25:44;;;;;;;29.75;20.23;;;;;;;5.43;100.00;102367.88;10134444;28;20054;-73
2023/04/10 02:30:41;;;;;;;31.35;21.08;;;;;;;5.37;100.00;102364.25;10146585;28;20037;-73
2023/04/10 02:35:37;;;;;;;35.58;21.52;;;;;;;5.35;100.00;102371.00;10139655;28;20104;-73
2023/04/10 02:40:34;;;;;;;31.17;19.83;;;;;;;5.28;100.00;102365.72;10152290;28;20046;-72
2023/04/10 02:45:32;;;;;;;31.38;20.85;;;;;;;5.29;100.00;102361.94;10149985;28;20047;-72
2023/04/10 02:50:30;;;;;;;29.17;19.95;;;;;;;5.20;100.00;102358.78;10149816;28;20072;-72
2023/04/10 02:55:27;;;;;;;32.72;21.52;;;;;;;5.16;100.00;102351.38;10150948;28;20046;-72
2023/04/10 03:00:23;;;;;;;31.35;20.85;;;;;;;5.15;100.00;102350.56;10149144;28;20046;-72
2023/04/10 03:05:20;;;;;;;32.78;21.00;;;;;;;5.04;100.00;102335.97;10144812;28;20121;-73
2023/04/10 03:10:16;;;;;;;33.70;19.98;;;;;;;5.07;100.00;102334.66;10148145;28;20052;-72
2023/04/10 03:15:12;;;;;;;33.15;21.52;;;;;;;5.03;100.00;102325.38;10148560;28;20415;-72
2023/04/10 03:20:09;;;;;;;36.17;23.60;;;;;;;5.03;100.00;102315.34;10135196;28;20455;-72
2023/04/10 03:25:06;;;;;;;34.00;21.98;;;;;;;5.02;100.00;102319.13;10150358;28;20088;-72
2023/04/10 03:30:03;;;;;;;33.85;21.75;;;;;;;5.11;100.00;102310.63;10140658;28;20094;-72
2023/04/10 03:35:00;;;;;;;32.90;21.00;;;;;;;5.06;100.00;102308.63;10147859;28;20125;-73
2023/04/10 03:39:57;;;;;;;33.15;21.35;;;;;;;5.04;100.00;102299.91;10152074;28;20097;-73
2023/04/10 03:44:53;;;;;;;31.88;21.00;;;;;;;5.08;100.00;102298.34;10143247;28;20129;-73
2023/04/10 03:49:49;;;;;;;30.70;20.10;;;;;;;5.04;100.00;102297.22;10143476;28;20423;-73
2023/04/10 03:54:46;;;;;;;34.00;21.10;;;;;;;5.10;100.00;102304.34;10150118;28;20047;-73
2023/04/10 03:59:42;;;;;;;37.58;22.92;;;;;;;4.97;100.00;102283.78;10144068;28;20421;-73
2023/04/10 04:04:39;;;;;;;34.10;19.90;;;;;;;5.11;100.00;102284.31;10139686;28;20043;-72
2023/04/10 04:09:36;;;;;;;33.15;22.00;;;;;;;5.11;100.00;102278.09;10149244;28;20042;-73
2023/04/10 04:14:33;;;;;;;34.85;23.08;;;;;;;5.14;100.00;102289.25;10148667;28;20048;-73
2023/04/10 04:19:29;;;;;;;29.77;20.67;;;;;;;5.17;100.00;102293.38;10149961;28;20149;-73
2023/04/10 04:24:26;;;;;;;33.85;22.08;;;;;;;5.13;100.00;102293.03;10141299;28;20069;-73
2023/04/10 04:29:22;;;;;;;31.60;20.42;;;;;;;5.05;100.00;102288.00;10138764;28;20068;-73
2023/04/10 04:34:19;;;;;;;35.25;22.85;;;;;;;4.96;100.00;102284.03;10143556;28;20152;-72
2023/04/10 04:39:15;;;;;;;29.88;21.00;;;;;;;4.97;100.00;102285.69;10147856;28;20049;-73
2023/04/10 04:44:12;;;;;;;35.95;22.75;;;;;;;4.91;100.00;102289.34;10144351;28;20133;-72
2023/04/10 04:49:08;;;;;;;29.45;19.85;;;;;;;4.98;100.00;102287.31;10143331;28;20088;-73
2023/04/10 04:54:04;;;;;;;34.22;21.08;;;;;;;5.06;100.00;102286.94;10142011;28;20470;-72
2023/04/10 04:59:01;;;;;;;31.67;20.70;;;;;;;5.10;100.00;102288.09;10141956;28;20424;-72
2023/04/10 05:03:57;;;;;;;38.40;23.33;;;;;;;5.11;100.00;102289.75;10149612;28;20511;-73
2023/04/10 05:08:54;;;;;;;33.80;21.95;;;;;;;5.23;100.00;102285.09;10142161;28;20129;-72
2023/04/10 05:13:51;;;;;;;33.40;21.55;;;;;;;5.28;100.00;102289.78;10146170;28;20053;-73
2023/04/10 05:18:48;;;;;;;36.22;23.00;;;;;;;5.33;100.00;102286.34;10142818;28;20533;-73
2023/04/10 05:23:44;;;;;;;29.92;20.90;;;;;;;5.43;100.00;102292.78;10141347;28;20133;-73
2023/04/10 05:28:41;;;;;;;34.47;22.27;;;;;;;5.50;100.00;102276.34;10149806;28;20131;-72
2023/04/10 05:33:37;;;;;;;29.95;20.38;;;;;;;5.64;100.00;102274.94;10139905;28;20069;-72
2023/04/10 05:38:33;;;;;;;31.42;20.38;;;;;;;5.75;100.00;102275.91;10146335;28;20504;-73
2023/04/10 05:43:30;;;;;;;31.67;20.15;;;;;;;5.86;100.00;102271.47;10135691;28;20444;-73
2023/04/10 05:48:27;;;;;;;34.78;21.98;;;;;;;5.98;100.00;102272.22;10148805;28;20081;-74
2023/04/10 05:53:31;;;;;;;31.88;21.25;;;;;;;6.07;100.00;102268.03;10147811;28;20125;-71
2023/04/10 05:58:28;;;;;;;33.42;22.08;;;;;;;6.14;100.00;102262.41;10136696;28;20144;-71
2023/04/10 06:03:26;;;;;;;32.05;21.83;;;;;;;6.21;100.00;102264.97;10146751;28;20065;-71
2023/04/10 06:08:23;;;;;;;32.10;20.45;;;;;;;6.20;100.00;102257.91;10140478;28;20078;-72
2023/04/10 06:13:19;;;;;;;32.92;21.73;;;;;;;6.26;100.00;102248.72;10147507;28;20527;-72
2023/04/10 06:18:16;;;;;;;34.08;21.88;;;;;;;6.28;100.00;102238.44;10149661;28;20073;-73
2023/04/10 06:23:12;;;;;;;37.33;22.70;;;;;;;6.35;100.00;102233.63;10154112;28;20595;-73
2023/04/10 06:28:09;;;;;;;33.90;21.50;;;;;;;6.39;100.00;102223.91;10143804;28;20125;-73
2023/04/10 06:33:06;;;;;;;30.52;21.05;;;;;;;6.45;100.00;102222.91;10143763;28;20042;-72
2023/04/10 06:38:02;;;;;;;30.58;20.38;;;;;;;6.56;100.00;102220.31;10153075;28;20542;-73
2023/04/10 06:42:59;;;;;;;31.75;22.42;;;;;;;6.66;100.00;102206.81;10140396;28;20584;-73
2023/04/10 06:47:56;;;;;;;33.38;21.17;;;;;;;6.74;100.00;102217.25;10141692;28;20053;-73
2023/04/10 06:52:54;;;;;;;31.77;20.60;;;;;;;6.76;100.00;102206.94;10149838;28;20061;-72
2023/04/10 06:57:51;;;;;;;32.20;21.90;;;;;;;6.89;100.00;102217.44;10148056;28;20046;-72
2023/04/10 07:02:48;;;;;;;30.88;22.13;;;;;;;6.92;100.00;102206.03;10136637;28;20054;-73
2023/04/10 07:07:46;;;;;;;33.65;22.83;;;;;;;6.97;100.00;102207.16;10141821;28;20042;-73
2023/04/10 07:12:42;;;;;;;29.90;19.73;;;;;;;7.04;100.00;102208.59;10147893;28;20526;-73
2023/04/10 07:17:39;;;;;;;30.05;21.17;;;;;;;7.11;100.00;102208.38;10141102;28;20138;-72
2023/04/10 07:22:35;;;;;;;33.15;21.15;;;;;;;7.19;100.00;102202.44;10150841;28;20039;-72
2023/04/10 07:27:32;;;;;;;32.08;20.67;;;;;;;7.31;100.00;102203.13;10154326;28;20498;-73
2023/04/10 07:32:28;;;;;;;31.13;19.77;;;;;;;7.46;100.00;102193.44;10147926;28;20081;-73
2023/04/10 07:37:25;;;;;;;29.42;19.83;;;;;;;7.51;100.00;102193.47;10149489;28;20046;-73
2023/04/10 07:42:22;;;;;;;28.08;18.90;;;;;;;7.65;100.00;102181.03;10152258;28;20044;-73
2023/04/10 07:47:18;;;;;;;29.00;19.50;;;;;;;7.82;100.00;102180.06;10146867;28;20563;-72
2023/04/10 07:52:15;;;;;;;27.30;18.90;;;;;;;7.98;100.00;102168.16;10147707;28;20073;-72
2023/04/10 07:57:12;;;;;;;29.67;20.02;;;;;;;8.14;100.00;102166.31;10143524;28;20493;-73
2023/04/10 08:02:08;;;;;;;28.52;20.13;;;;;;;8.38;100.00;102167.53;10142700;28;20500;-72
2023/04/10 08:07:05;;;;;;;28.88;21.48;;;;;;;8.51;100.00;102168.94;10146840;28;20046;-73
2023/04/10 08:12:01;;;;;;;26.80;19.55;;;;;;;8.74;100.00;102164.09;10146581;28;20046;-72
2023/04/10 08:16:58;;;;;;;29.75;19.77;;;;;;;8.95;100.00;102149.38;10148327;28;20046;-72
2023/04/10 08:21:54;;;;;;;29.02;19.80;;;;;;;9.23;100.00;102155.41;10143549;28;20085;-73
2023/04/10 08:26:51;;;;;;;32.38;20.20;;;;;;;9.52;100.00;102144.72;10141912;28;20487;-73
2023/04/10 08:31:47;;;;;;;26.17;19.45;;;;;;;9.80;100.00;102137.84;10142836;28;20056;-72
2023/04/10 08:36:44;;;;;;;24.33;19.25;;;;;;;10.12;100.00;102128.44;10145853;28;20039;-70
2023/04/10 08:41:40;;;;;;;24.00;18.38;;;;;;;10.35;100.00;102131.63;10144365;28;20077;-72
2023/04/10 08:46:42;;;;;;;25.92;18.92;;;;;;;10.43;100.00;102122.84;10146345;28;20116;-73
2023/04/10 08:51:45;;;;;;;26.27;19.73;;;;;;;10.57;100.00;102110.16;10137424;28;20085;-72
2023/04/10 08:56:51;;;;;;;24.88;18.40;;;;;;;10.87;100.00;102100.91;10132678;28;20519;-73
2023/04/10 09:01:47;;;;;;;22.27;17.48;;;;;;;11.12;100.00;102105.38;10152499;28;20145;-72
2023/04/10 09:06:44;;;;;;;21.95;18.25;;;;;;;11.39;100.00;102095.78;10140766;28;21722;-73
2023/04/10 09:11:54;;;;;;;22.58;18.42;;;;;;;11.58;100.00;102088.47;10154091;28;20086;-72
2023/04/10 09:16:53;;;;;;;21.88;17.75;;;;;;;11.83;100.00;102077.50;10135911;28;20057;-73
2023/04/10 09:21:50;;;;;;;21.98;17.40;;;;;;;11.94;100.00;102068.88;10149299;28;20092;-72
2023/04/10 09:26:46;;;;;;;19.95;16.65;;;;;;;12.10;100.00;102061.28;10143994;28;20096;-73
2023/04/10 09:31:43;;;;;;;20.85;17.75;;;;;;;12.42;100.00;102046.00;10149123;28;20579;-73
2023/04/10 09:37:01;;;;;;;21.25;17.02;;;;;;;12.42;100.00;102046.00;10141516;28;20053;-72
2023/04/10 09:41:57;;;;;;;19.73;15.93;;;;;;;13.04;100.00;102018.34;10146082;28;20463;-73
2023/04/10 09:46:54;;;;;;;16.80;14.13;;;;;;;-146.18;100.00;67994.34;10150938;28;20050;-72
2023/04/10 09:51:51;;;;;;;16.75;14.20;;;;;;;13.74;100.00;101988.94;10149945;28;20126;-73
2023/04/10 09:56:48;;;;;;;17.17;13.98;;;;;;;14.23;100.00;101974.34;10154535;28;20137;-73
2023/04/10 10:01:45;;;;;;;16.88;15.10;;;;;;;14.69;100.00;101961.41;10145873;28;20046;-72
2023/04/10 10:06:42;;;;;;;18.23;14.00;;;;;;;14.99;100.00;101948.75;10150360;28;20050;-73
2023/04/10 10:11:38;;;;;;;15.15;13.55;;;;;;;15.55;100.00;101943.59;10143965;28;20519;-72
2023/04/10 10:16:51;;;;;;;13.32;11.75;;;;;;;16.33;100.00;101940.03;10144489;28;20078;-71
2023/04/10 10:21:49;;;;;;;16.25;12.20;;;;;;;16.65;100.00;101940.63;10142527;28;20467;-73
2023/04/10 10:26:46;;;;;;;12.93;11.52;;;;;;;16.95;100.00;101917.44;10145872;28;20085;-73
2023/04/10 10:31:44;;;;;;;14.70;13.20;;;;;;;18.80;97.48;101915.63;10154285;28;20566;-71
2023/04/10 10:36:40;;;;;;;13.95;12.60;;;;;;;19.76;88.31;101890.13;10149390;28;20043;-73
2023/04/10 10:41:42;;;;;;;11.60;10.40;;;;;;;-146.18;100.00;67994.34;10150785;28;20104;-73
2023/04/10 10:46:51;;;;;;;12.02;10.82;;;;;;;-146.18;100.00;67994.34;10146597;28;20483;-73
2023/04/10 10:51:49;;;;;;;10.50;9.40;;;;;;;-146.18;100.00;67994.34;10147244;28;20054;-73
2023/04/10 10:56:46;;;;;;;10.65;9.65;;;;;;;-146.18;100.00;67994.34;10155045;28;20050;-73
2023/04/10 11:02:11;;;;;;;12.02;10.82;;;;;;;18.82;70.63;101846.81;10143370;28;20062;-72
2023/04/10 11:07:07;;;;;;;11.35;10.25;;;;;;;20.06;62.03;101837.81;10145105;28;20101;-73
2023/04/10 11:12:06;;;;;;;9.88;8.98;;;;;;;19.86;58.87;101817.44;10146985;28;20089;-72
2023/04/10 11:17:03;;;;;;;12.05;10.85;;;;;;;20.44;63.22;101818.94;10151725;28;20073;-73
2023/04/10 11:22:04;;;;;;;11.85;10.65;;;;;;;20.70;61.22;101796.19;10146217;28;20042;-73
2023/04/10 11:27:00;;;;;;;12.97;10.57;;;;;;;20.87;56.72;101783.91;10144764;28;20050;-72
2023/04/10 11:31:59;;;;;;;11.55;10.45;;;;;;;21.99;52.62;101771.84;10146160;28;20056;-72
2023/04/10 11:36:55;;;;;;;10.60;9.50;;;;;;;21.84;46.50;101753.31;10142796;28;20166;-72
2023/04/10 11:41:54;;;;;;;9.95;9.05;;;;;;;22.05;48.07;101748.09;10148235;28;20137;-73
2023/04/10 11:46:50;;;;;;;9.88;8.90;;;;;;;22.44;44.25;101728.47;10143061;28;20046;-71
2023/04/10 11:51:48;;;;;;;9.55;8.52;;;;;;;21.65;40.71;101737.44;10152192;28;20166;-72
2023/04/10 11:56:58;;;;;;;9.45;8.55;;;;;;;21.74;45.24;101729.66;10150575;28;20043;-74
2023/04/10 12:02:08;;;;;;;13.38;8.40;;;;;;;21.92;39.67;101723.59;10152459;28;20457;-71
2023/04/10 12:07:05;;;;;;;9.40;8.60;;;;;;;21.66;39.07;101707.66;10147155;28;20038;-71
2023/04/10 12:12:03;;;;;;;9.98;9.00;;;;;;;22.72;38.84;101704.16;10153904;28;20057;-72
2023/04/10 12:17:01;;;;;;;9.52;8.73;;;;;;;22.98;38.95;101681.00;10143513;28;20038;-72
2023/04/10 12:22:00;;;;;;;9.75;8.82;;;;;;;23.51;37.93;101683.63;10143591;28;20534;-72
2023/04/10 12:26:57;;;;;;;9.18;8.38;;;;;;;22.77;39.91;101668.41;10144683;28;20078;-72
2023/04/10 12:31:55;;;;;;;9.77;8.52;;;;;;;22.22;40.01;101676.38;10149461;28;20097;-72
2023/04/10 12:36:53;;;;;;;9.73;8.82;;;;;;;21.85;42.87;101674.19;10138620;28;20589;-72
2023/04/10 12:41:49;;;;;;;8.98;8.15;;;;;;;21.09;44.24;101660.84;10147220;28;20072;-72
2023/04/10 12:46:45;;;;;;;9.68;8.88;;;;;;;21.07;42.73;101646.50;10143134;28;20133;-72
2023/04/10 12:51:44;;;;;;;10.40;8.32;;;;;;;20.94;43.08;101643.06;10149075;28;20068;-72
2023/04/10 12:56:42;;;;;;;9.20;8.43;;;;;;;21.19;42.74;101643.56;10141888;28;20082;-72
2023/04/10 13:01:39;;;;;;;8.70;7.90;;;;;;;21.48;41.57;101627.41;10149052;28;20472;-72
2023/04/10 13:06:43;;;;;;;9.57;8.68;;;;;;;21.49;41.16;101612.34;10143428;28;20050;-73
2023/04/10 13:11:40;;;;;;;8.18;7.47;;;;;;;21.41;45.55;101613.38;10143121;28;20046;-72
2023/04/10 13:16:37;;;;;;;9.07;8.27;;;;;;;20.76;42.53;101598.25;10134105;28;20483;-72
2023/04/10 13:21:33;;;;;;;10.23;7.93;;;;;;;20.12;45.50;101585.72;10149608;28;20134;-72
2023/04/10 13:26:30;;;;;;;8.60;7.80;;;;;;;19.89;44.87;101567.00;10140122;28;20050;-71
2023/04/10 13:31:26;;;;;;;8.50;7.70;;;;;;;19.50;46.41;101561.25;10145358;28;20047;-71
2023/04/10 13:36:23;;;;;;;8.65;7.93;;;;;;;19.04;45.26;101549.78;10143283;28;20054;-71
2023/04/10 13:41:19;;;;;;;8.60;7.70;;;;;;;19.08;48.17;101539.59;10141795;28;20077;-72
2023/04/10 13:46:16;;;;;;;8.23;7.53;;;;;;;18.42;47.13;101526.28;10136922;28;20046;-72
2023/04/10 13:51:12;;;;;;;8.45;7.65;;;;;;;18.14;49.59;101518.75;10147986;28;20062;-71
2023/04/10 13:56:09;;;;;;;9.25;8.32;;;;;;;18.27;55.23;101511.22;10145185;28;20054;-72
2023/04/10 14:01:05;;;;;;;9.00;8.05;;;;;;;18.06;54.43;101500.34;10142986;28;20443;-72
2023/04/10 14:06:02;;;;;;;8.40;7.60;;;;;;;17.95;57.83;101488.13;10137501;28;20696;-72
2023/04/10 14:10:59;;;;;;;8.65;7.85;;;;;;;17.94;61.36;101470.75;10142032;28;20046;-71
2023/04/10 14:15:55;;;;;;;10.40;7.90;;;;;;;18.13;62.15;101461.81;10143955;28;20504;-72
2023/04/10 14:20:51;;;;;;;9.25;8.27;;;;;;;18.04;63.82;101444.53;10151734;28;20070;-71
2023/04/10 14:25:49;;;;;;;10.68;9.05;;;;;;;18.19;60.84;101438.22;10136986;28;20423;-71
2023/04/10 14:30:50;;;;;;;9.68;8.70;;;;;;;18.26;64.43;101427.38;10143914;28;20046;-71
2023/04/10 14:35:47;;;;;;;9.10;8.20;;;;;;;18.31;64.42;101418.03;10148871;28;20447;-71
2023/04/10 14:40:47;;;;;;;9.93;8.93;;;;;;;18.34;65.07;101405.44;10150926;28;20069;-71
2023/04/10 14:45:43;;;;;;;10.40;9.30;;;;;;;18.29;66.50;101390.69;10150445;28;20046;-72
2023/04/10 14:50:40;;;;;;;10.10;9.10;;;;;;;18.54;67.47;101379.44;10150378;28;20504;-72
2023/04/10 14:55:36;;;;;;;10.32;9.20;;;;;;;18.99;64.76;101353.31;10153231;28;20105;-71
2023/04/10 15:00:33;;;;;;;9.65;8.75;;;;;;;18.68;61.20;101349.38;10149203;28;20066;-71
2023/04/10 15:05:30;;;;;;;17.77;9.13;;;;;;;18.36;62.76;101331.94;10146784;28;20051;-71
2023/04/10 15:10:29;;;;;;;9.70;8.80;;;;;;;18.74;62.60;101318.63;10152714;28;20046;-71
2023/04/10 15:15:26;;;;;;;9.30;8.30;;;;;;;18.61;62.55;101309.59;10139450;28;20519;-71
2023/04/10 15:20:22;;;;;;;8.70;7.80;;;;;;;18.27;61.42;101315.50;10147236;28;20054;-72
2023/04/10 15:25:18;;;;;;;12.55;8.27;;;;;;;17.98;63.23;101288.22;10148654;28;20138;-71
2023/04/10 15:30:16;;;;;;;8.70;7.80;;;;;;;17.90;68.17;101286.44;10149453;28;20054;-72
2023/04/10 15:35:12;;;;;;;9.85;7.85;;;;;;;17.70;67.08;101283.50;10145675;28;20050;-71
2023/04/10 15:40:09;;;;;;;9.30;8.20;;;;;;;17.83;67.14;101254.66;10147617;28;20789;-71
2023/04/10 15:45:06;;;;;;;9.45;7.95;;;;;;;18.28;67.56;101247.91;10144083;28;20628;-71
2023/04/10 15:50:03;;;;;;;7.82;7.13;;;;;;;18.33;66.79;101226.66;10142849;28;20553;-71
2023/04/10 15:55:00;;;;;;;8.85;7.95;;;;;;;18.47;66.53;101215.91;10150716;28;20117;-72
2023/04/10 15:59:59;;;;;;;8.52;7.45;;;;;;;18.73;63.96;101209.81;10149104;28;20541;-72
2023/04/10 16:04:55;;;;;;;8.15;6.90;;;;;;;18.06;66.35;101207.03;10148308;28;20373;-71
2023/04/10 16:09:54;;;;;;;10.15;7.50;;;;;;;17.24;70.04;101191.78;10146589;28;20056;-72
2023/04/10 16:14:50;;;;;;;8.45;7.32;;;;;;;16.95;73.71;101182.66;10144622;28;20050;-72
2023/04/10 16:19:46;;;;;;;8.55;7.65;;;;;;;16.81;74.94;101168.44;10150633;28;20070;-72
2023/04/10 16:24:43;;;;;;;9.10;8.20;;;;;;;16.63;76.91;101160.38;10144641;28;20046;-72
2023/04/10 16:29:39;;;;;;;10.13;9.07;;;;;;;16.49;78.82;101161.91;10146127;28;20397;-72
2023/04/10 16:34:36;;;;;;;9.70;8.50;;;;;;;16.28;80.74;101159.28;10144073;28;20038;-71
2023/04/10 16:39:32;;;;;;;10.23;9.25;;;;;;;16.09;85.25;101144.13;10147112;28;20058;-72
2023/04/10 16:44:30;;;;;;;9.70;8.60;;;;;;;15.93;88.31;101137.69;10144085;28;20065;-72
2023/04/10 16:49:26;;;;;;;13.02;9.73;;;;;;;15.87;90.86;101125.25;10146788;28;20038;-71
2023/04/10 16:54:23;;;;;;;10.80;8.75;;;;;;;15.68;91.76;101126.59;10142678;28;20047;-71
2023/04/10 16:59:19;;;;;;;10.45;9.23;;;;;;;15.58;92.18;101099.50;10135524;28;20504;-71
2023/04/10 17:04:17;;;;;;;11.15;8.50;;;;;;;15.48;93.07;101094.41;10141378;28;20070;-71
2023/04/10 17:09:14;;;;;;;9.52;8.52;;;;;;;15.39;94.05;101086.25;10132571;28;20050;-71
2023/04/10 17:14:12;;;;;;;14.45;8.95;;;;;;;15.31;94.03;101074.16;10142196;28;20048;-71
2023/04/10 17:19:08;;;;;;;9.52;8.63;;;;;;;15.26;94.67;101066.13;10138968;28;20571;-72
2023/04/10 17:24:05;;;;;;;8.82;7.95;;;;;;;15.18;96.18;101069.81;10146141;28;20424;-72
2023/04/10 17:29:01;;;;;;;9.55;8.57;;;;;;;15.10;97.76;101070.69;10139317;28;20043;-72
2023/04/10 17:33:57;;;;;;;10.35;8.90;;;;;;;15.06;98.22;101061.47;10145781;28;20551;-71
2023/04/10 17:38:54;;;;;;;10.43;8.93;;;;;;;14.98;100.00;101067.91;10135121;28;20068;-71
2023/04/10 17:43:51;;;;;;;10.00;9.02;;;;;;;14.87;100.00;101060.03;10136175;28;20463;-71
2023/04/10 17:48:47;;;;;;;10.18;9.27;;;;;;;14.81;100.00;101055.91;10141622;28;20089;-72
2023/04/10 17:53:45;;;;;;;9.90;8.90;;;;;;;14.69;100.00;101047.59;10144155;28;20507;-72
2023/04/10 17:58:42;;;;;;;10.00;8.98;;;;;;;14.56;100.00;101032.19;10134062;28;20048;-71
2023/04/10 18:03:38;;;;;;;10.30;9.30;;;;;;;14.43;100.00;101034.81;10134418;28;20061;-68
2023/04/10 18:08:35;;;;;;;11.52;9.80;;;;;;;14.38;100.00;101026.78;10130622;28;20046;-68
2023/04/10 18:13:34;;;;;;;9.60;8.63;;;;;;;14.31;100.00;101015.50;10138240;28;20129;-69
2023/04/10 18:18:33;;;;;;;10.25;8.95;;;;;;;14.27;100.00;101020.06;10140238;28;20133;-68
2023/04/10 18:23:30;;;;;;;11.45;9.63;;;;;;;14.17;100.00;101020.47;10137928;28;20047;-68
2023/04/10 18:28:26;;;;;;;14.20;12.07;;;;;;;14.15;100.00;101012.56;10143256;28;20125;-68
2023/04/10 18:33:24;;;;;;;10.93;9.75;;;;;;;14.16;100.00;101013.38;10142510;28;20588;-68
2023/04/10 18:38:20;;;;;;;13.30;10.77;;;;;;;14.08;100.00;101002.09;10151849;28;20527;-68
2023/04/10 18:43:17;;;;;;;11.07;9.63;;;;;;;14.07;100.00;101005.19;10151071;28;20046;-69
2023/04/10 18:48:13;;;;;;;11.32;10.23;;;;;;;14.00;100.00;101000.22;10149821;28;20497;-68
2023/04/10 18:53:09;;;;;;;11.25;9.52;;;;;;;13.96;100.00;100990.22;10148421;28;20046;-69
2023/04/10 18:58:06;;;;;;;10.43;9.32;;;;;;;13.89;100.00;100988.00;10145882;28;20050;-68
2023/04/10 19:03:02;;;;;;;10.80;9.68;;;;;;;13.84;100.00;100980.75;10145972;28;20137;-69
2023/04/10 19:08:02;;;;;;;11.88;9.93;;;;;;;13.82;100.00;100969.28;10144384;28;20101;-68
2023/04/10 19:13:00;;;;;;;12.18;10.98;;;;;;;13.81;100.00;100964.94;10151447;28;20066;-68
2023/04/10 19:17:57;;;;;;;11.05;9.95;;;;;;;13.77;100.00;100963.19;10143503;28;20509;-68
2023/04/10 19:22:53;;;;;;;12.02;9.75;;;;;;;13.77;100.00;100958.50;10145760;28;20061;-69
2023/04/10 19:27:50;;;;;;;11.15;9.88;;;;;;;13.76;100.00;100945.91;10148205;28;20393;-68
2023/04/10 19:32:46;;;;;;;10.85;9.85;;;;;;;13.76;100.00;100945.09;10146261;28;20074;-69
2023/04/10 19:37:43;;;;;;;10.93;9.82;;;;;;;13.70;100.00;100921.69;10148798;28;20046;-69
2023/04/10 19:42:39;;;;;;;11.10;10.00;;;;;;;13.64;100.00;100921.88;10147616;28;20038;-67
2023/04/10 19:47:36;;;;;;;11.95;10.73;;;;;;;13.64;100.00;100910.09;10135727;28;20052;-68
2023/04/10 19:52:32;;;;;;;11.05;9.85;;;;;;;13.57;100.00;100899.63;10136832;28;20141;-71
2023/04/10 19:57:29;;;;;;;12.40;9.98;;;;;;;13.58;100.00;100889.47;10139538;28;20133;-69
2023/04/10 20:02:26;;;;;;;11.52;10.32;;;;;;;13.52;100.00;100880.59;10146837;28;20045;-72
2023/04/10 20:07:23;;;;;;;13.73;10.15;;;;;;;13.52;100.00;100868.81;10146211;28;20046;-73
2023/04/10 20:12:21;;;;;;;11.35;9.95;;;;;;;13.49;100.00;100870.28;10134377;28;20053;-73
2023/04/10 20:17:18;;;;;;;10.73;9.45;;;;;;;13.43;100.00;100866.13;10142362;28;20083;-73
2023/04/10 20:22:14;;;;;;;10.93;9.32;;;;;;;13.42;100.00;100842.56;10146027;28;20081;-71
2023/04/10 20:27:13;;;;;;;10.95;9.85;;;;;;;13.37;100.00;100818.03;10143515;28;20063;-71
2023/04/10 20:32:09;;;;;;;10.75;9.63;;;;;;;13.34;100.00;100808.50;10142860;28;20504;-71
2023/04/10 20:37:06;;;;;;;9.98;8.95;;;;;;;13.31;100.00;100789.16;10143539;28;20100;-71
2023/04/10 20:42:03;;;;;;;10.82;9.73;;;;;;;13.30;100.00;100774.63;10144893;28;20149;-72
2023/04/10 20:46:59;;;;;;;10.32;9.23;;;;;;;13.29;100.00;100764.75;10148070;28;20492;-73
2023/04/10 20:52:02;;;;;;;9.98;8.98;;;;;;;13.25;100.00;100756.38;10139807;28;20129;-72
2023/04/10 20:57:00;;;;;;;;;;;;;;;13.22;100.00;100746.03;10139218;28;20057;-71
2023/04/10 21:01:57;;;;;;;10.23;9.18;;;;;;;13.14;100.00;100738.69;10141672;28;19922;-70
2023/04/10 21:06:54;;;;;;;9.90;8.75;;;;;;;13.13;100.00;100728.84;10146959;28;20054;-69
2023/04/10 21:11:50;;;;;;;10.73;9.15;;;;;;;13.09;100.00;100716.94;10145887;28;20508;-69
2023/04/10 21:16:56;;;;;;;9.52;8.55;;;;;;;13.08;100.00;100707.09;10142789;28;20061;-72
2023/04/10 21:22:12;;;;;;;9.05;8.02;;;;;;;13.04;100.00;100703.41;10150714;28;20058;-73
2023/04/10 21:27:35;;;;;;;10.43;8.82;;;;;;;12.98;100.00;100705.56;10142960;28;20042;-75
2023/04/10 21:32:38;;;;;;;10.77;8.87;;;;;;;13.02;100.00;100714.72;10144295;28;20091;-75
2023/04/10 21:37:35;;;;;;;11.48;8.77;;;;;;;13.05;100.00;100719.53;10140964;28;20073;-69
2023/04/10 21:42:32;;;;;;;12.95;9.82;;;;;;;12.89;100.00;100720.47;10148435;28;20570;-68
2023/04/10 21:47:28;;;;;;;10.77;8.68;;;;;;;12.27;100.00;100728.22;10156392;28;20046;-68
2023/04/10 21:52:25;;;;;;;14.38;8.35;;;;;;;11.72;100.00;100740.78;10154261;28;20046;-71
2023/04/10 21:57:26;;;;;;;8.13;7.32;;;;;;;11.62;100.00;100729.34;10150394;28;20058;-72
2023/04/10 22:02:24;;;;;;;;;;;;;;;11.42;100.00;100725.31;10135430;28;20061;-72
2023/04/10 22:08:07;;;;;;;7.22;6.53;;;;;;;11.23;100.00;100728.38;10148478;28;19945;-73
2023/04/10 22:13:48;;;;;;;6.70;5.72;;;;;;;10.84;100.00;100730.16;10148593;28;20050;-74
2023/04/10 22:18:44;;;;;;;6.22;5.10;;;;;;;10.63;100.00;100738.94;10154010;28;20177;-75
2023/04/10 22:23:41;;;;;;;6.82;6.05;;;;;;;10.46;100.00;100725.19;10154397;28;20050;-75
2023/04/10 22:28:37;;;;;;;7.05;5.63;;;;;;;10.41;100.00;100744.47;10156673;28;20096;-75